Time;durP1;ratioP1;P1;durP2;ratioP2;P2;SDS_P1;SDS_P2;PMS_P1;PMS_P2;Temp;Humidity;BMP_temperature;BMP_pressure;BME280_temperature;BME280_humidity;BME280_pressure;Samples;Min_cycle;Max_cycle;Signal;HPM_P1;HPM_P2
2021/05/16 00:01:11;;;;;;;3.78;2.72;;;16.30;82.80;;;;;;5032094;28;20106;-73
2021/05/16 00:03:37;;;;;;;3.33;2.95;;;16.30;81.00;;;;;;5039687;28;20040;-74
2021/05/16 00:06:03;;;;;;;3.78;3.47;;;16.30;81.50;;;;;;5039667;28;20128;-73
2021/05/16 00:09:15;;;;;;;5.00;3.63;;;16.30;80.80;;;;;;5039953;28;20467;-72
2021/05/16 00:11:44;;;;;;;4.57;3.60;;;16.20;87.40;;;;;;5012264;28;20114;-72
2021/05/16 00:14:10;;;;;;;5.25;4.65;;;16.10;85.50;;;;;;5076217;28;20045;-71
2021/05/16 00:16:36;;;;;;;5.05;4.10;;;16.10;86.30;;;;;;5033857;28;20383;-71
2021/05/16 00:19:04;;;;;;;6.88;4.32;;;16.00;86.30;;;;;;5041199;28;20471;-71
2021/05/16 00:21:29;;;;;;;5.22;4.03;;;16.00;86.90;;;;;;5034528;28;20044;-71
2021/05/16 00:23:55;;;;;;;5.40;4.40;;;16.00;85.80;;;;;;5039540;28;20135;-70
2021/05/16 00:26:21;;;;;;;8.85;4.30;;;16.00;86.00;;;;;;5047924;28;20413;-69
2021/05/16 00:28:47;;;;;;;6.88;5.10;;;16.00;86.60;;;;;;5044125;28;20390;-71
2021/05/16 00:31:12;;;;;;;6.43;5.05;;;16.00;85.50;;;;;;5039654;28;20036;-72
2021/05/16 00:33:38;;;;;;;5.38;4.88;;;16.00;84.40;;;;;;5029794;28;20526;-72
2021/05/16 00:36:04;;;;;;;6.25;5.65;;;16.00;84.60;;;;;;5058706;28;20029;-72
2021/05/16 00:38:30;;;;;;;6.35;5.75;;;16.00;85.60;;;;;;5034277;28;20084;-72
2021/05/16 00:40:56;;;;;;;6.47;5.88;;;16.00;86.00;;;;;;5039617;28;20477;-71
2021/05/16 00:43:46;;;;;;;6.80;6.20;;;15.90;86.20;;;;;;5032671;28;20110;-70
2021/05/16 00:46:12;;;;;;;5.72;5.13;;;16.00;89.00;;;;;;5042260;28;20044;-74
2021/05/16 00:48:49;;;;;;;5.70;5.10;;;16.00;87.40;;;;;;5032444;28;20041;-73
2021/05/16 00:51:15;;;;;;;7.28;6.57;;;15.90;87.20;;;;;;5036126;28;20042;-73
2021/05/16 00:53:41;;;;;;;6.55;5.68;;;15.90;86.20;;;;;;5038927;28;20052;-72
2021/05/16 00:56:06;;;;;;;7.13;6.00;;;16.00;85.50;;;;;;5038875;28;20096;-72
2021/05/16 00:58:33;;;;;;;8.10;5.88;;;16.00;85.70;;;;;;5039082;28;20048;-73
2021/05/16 01:01:01;;;;;;;6.93;6.32;;;16.10;85.60;;;;;;5038295;28;20506;-73
2021/05/16 01:03:27;;;;;;;7.57;6.70;;;16.00;85.50;;;;;;5037287;28;20040;-72
2021/05/16 01:05:53;;;;;;;7.82;6.47;;;16.10;85.60;;;;;;5044037;28;20402;-72
2021/05/16 01:08:19;;;;;;;7.32;6.60;;;16.00;85.20;;;;;;5035738;28;20051;-73
2021/05/16 01:10:46;;;;;;;7.07;5.85;;;16.10;85.10;;;;;;5055814;28;20046;-73
2021/05/16 01:13:12;;;;;;;8.70;6.15;;;16.00;85.10;;;;;;5032134;28;20098;-72
2021/05/16 01:15:43;;;;;;;8.27;7.00;;;16.00;85.30;;;;;;5041727;28;20041;-72
2021/05/16 01:18:09;;;;;;;8.10;7.22;;;16.00;86.20;;;;;;5039675;28;20107;-73
2021/05/16 01:20:38;;;;;;;7.82;6.88;;;16.00;84.50;;;;;;5039212;28;20056;-73
2021/05/16 01:23:18;;;;;;;7.20;6.00;;;16.00;84.30;;;;;;5041462;28;20089;-73
2021/05/16 01:25:46;;;;;;;7.20;6.50;;;16.00;83.60;;;;;;5035344;28;20560;-73
2021/05/16 01:28:14;;;;;;;8.10;7.30;;;15.90;83.80;;;;;;5037383;28;20124;-73
2021/05/16 01:30:40;;;;;;;8.65;7.25;;;15.90;83.30;;;;;;5033487;28;20045;-73
2021/05/16 01:33:21;;;;;;;8.07;7.28;;;15.90;84.80;;;;;;5041010;28;20484;-72
2021/05/16 01:35:47;;;;;;;7.25;6.55;;;15.90;85.10;;;;;;5038187;28;20037;-73
2021/05/16 01:38:46;;;;;;;6.88;6.22;;;15.90;84.40;;;;;;5052482;28;20404;-72
2021/05/16 01:41:12;;;;;;;7.88;7.15;;;15.80;83.10;;;;;;5016265;28;20407;-73
2021/05/16 01:43:39;;;;;;;7.68;6.43;;;15.80;83.80;;;;;;5043830;28;20037;-73
2021/05/16 01:46:05;;;;;;;7.45;6.75;;;15.70;84.40;;;;;;5044110;28;20041;-73
2021/05/16 01:48:31;;;;;;;7.63;6.45;;;15.60;84.70;;;;;;5042234;28;20048;-73
2021/05/16 01:50:56;;;;;;;7.45;6.68;;;15.70;84.30;;;;;;5034438;28;20045;-72
2021/05/16 01:53:25;;;;;;;7.43;6.65;;;15.60;84.00;;;;;;5040488;28;20041;-72
2021/05/16 01:55:51;;;;;;;6.88;6.18;;;15.60;84.50;;;;;;5033722;28;20037;-68
2021/05/16 01:58:19;;;;;;;6.70;6.03;;;15.60;84.40;;;;;;5046102;28;20379;-73
2021/05/16 02:00:45;;;;;;;8.20;7.00;;;15.60;84.30;;;;;;5037570;28;20045;-73
2021/05/16 02:03:11;;;;;;;6.55;6.05;;;15.50;83.40;;;;;;5037948;28;20033;-73
2021/05/16 02:05:44;;;;;;;6.97;6.38;;;15.50;84.00;;;;;;5040029;28;20565;-73
2021/05/16 02:08:09;;;;;;;7.63;6.68;;;15.50;85.50;;;;;;5041771;28;20531;-73
2021/05/16 02:10:35;;;;;;;7.43;6.72;;;15.50;85.10;;;;;;5037854;28;20037;-73
2021/05/16 02:13:02;;;;;;;7.03;6.32;;;15.40;84.50;;;;;;5044448;28;20033;-72
2021/05/16 02:15:27;;;;;;;7.30;6.60;;;15.40;84.80;;;;;;5039576;28;20116;-73
2021/05/16 02:17:55;;;;;;;9.55;6.93;;;15.40;85.20;;;;;;5043646;28;20187;-72
2021/05/16 02:21:13;;;;;;;7.10;5.97;;;15.40;84.90;;;;;;5048632;28;20053;-62
2021/05/16 02:23:40;;;;;;;5.82;5.13;;;15.30;83.50;;;;;;4995194;28;20045;-72
2021/05/16 02:26:07;;;;;;;5.80;5.15;;;15.20;83.00;;;;;;5036307;28;20037;-73
2021/05/16 02:28:34;;;;;;;5.78;4.97;;;15.30;82.10;;;;;;5041259;28;20041;-73
2021/05/16 02:31:08;;;;;;;3.70;3.42;;;15.30;82.80;;;;;;5034310;28;20057;-73
2021/05/16 02:33:34;;;;;;;4.68;4.38;;;15.30;81.00;;;;;;5041676;28;20136;-74
2021/05/16 02:36:00;;;;;;;4.32;3.92;;;15.30;80.60;;;;;;5038419;28;20140;-73
2021/05/16 02:38:25;;;;;;;4.63;4.22;;;15.30;81.40;;;;;;5035906;28;20041;-72
2021/05/16 02:40:51;;;;;;;5.72;3.97;;;15.30;80.80;;;;;;5058120;28;20052;-73
2021/05/16 02:43:16;;;;;;;3.83;3.42;;;15.20;80.70;;;;;;5033119;28;20087;-73
2021/05/16 02:45:42;;;;;;;4.28;3.78;;;15.10;80.80;;;;;;5039378;28;20543;-72
2021/05/16 02:48:26;;;;;;;4.10;3.80;;;15.20;80.90;;;;;;5035193;28;20064;-74
2021/05/16 02:50:52;;;;;;;3.33;3.03;;;15.10;78.90;;;;;;5040113;28;20041;-72
2021/05/16 02:53:20;;;;;;;3.65;3.00;;;15.00;79.90;;;;;;5044486;28;20029;-72
2021/05/16 02:55:47;;;;;;;4.07;3.00;;;15.00;80.20;;;;;;5043894;28;20043;-73
2021/05/16 02:58:13;;;;;;;3.20;2.90;;;15.00;79.50;;;;;;5042361;28;20037;-72
2021/05/16 03:00:39;;;;;;;2.72;2.53;;;15.00;79.60;;;;;;5041061;28;20392;-73
2021/05/16 03:03:04;;;;;;;3.40;3.13;;;15.00;79.40;;;;;;5033840;28;20449;-73
2021/05/16 03:05:30;;;;;;;3.47;2.78;;;15.00;80.20;;;;;;5041061;28;20036;-72
2021/05/16 03:07:56;;;;;;;3.90;2.90;;;15.00;80.10;;;;;;5036613;28;20122;-72
2021/05/16 03:10:22;;;;;;;3.63;3.33;;;14.90;80.80;;;;;;5039658;28;20041;-70
2021/05/16 03:12:48;;;;;;;2.90;2.70;;;14.90;80.00;;;;;;5038641;28;20040;-73
2021/05/16 03:15:14;;;;;;;2.97;2.75;;;14.90;80.50;;;;;;5032524;28;20387;-72
2021/05/16 03:17:40;;;;;;;3.38;3.08;;;14.80;80.10;;;;;;5036615;28;20071;-72
2021/05/16 03:20:07;;;;;;;2.72;2.53;;;14.80;79.80;;;;;;5033909;28;20064;-72
2021/05/16 03:22:33;;;;;;;3.60;2.65;;;14.90;79.60;;;;;;5036462;28;20061;-72
2021/05/16 03:24:59;;;;;;;2.95;2.63;;;14.90;80.30;;;;;;5032706;28;20029;-71
2021/05/16 03:27:25;;;;;;;3.40;2.83;;;14.80;79.10;;;;;;5036604;28;20042;-72
2021/05/16 03:29:50;;;;;;;2.80;2.60;;;14.80;78.10;;;;;;5038607;28;20047;-72
2021/05/16 03:32:16;;;;;;;3.97;3.10;;;14.80;79.00;;;;;;5037994;28;20406;-72
2021/05/16 03:34:42;;;;;;;3.17;2.50;;;14.80;79.70;;;;;;5036919;28;20041;-73
2021/05/16 03:37:07;;;;;;;4.30;3.15;;;14.80;79.30;;;;;;5041837;28;20041;-72
2021/05/16 03:39:33;;;;;;;2.90;2.70;;;14.80;79.50;;;;;;5032870;28;20506;-72
2021/05/16 03:41:59;;;;;;;2.75;2.40;;;14.70;79.00;;;;;;5050523;28;20045;-71
2021/05/16 03:44:25;;;;;;;2.70;2.50;;;14.70;78.70;;;;;;5035264;28;20045;-73
2021/05/16 03:46:51;;;;;;;4.63;2.50;;;14.70;77.80;;;;;;5047448;28;20517;-74
2021/05/16 03:49:17;;;;;;;2.30;2.10;;;14.70;78.90;;;;;;5034413;28;20037;-73
2021/05/16 03:51:44;;;;;;;2.15;2.00;;;14.70;79.10;;;;;;5039492;28;20120;-72
2021/05/16 03:54:10;;;;;;;2.78;2.45;;;14.70;78.80;;;;;;5036232;28;20036;-72
2021/05/16 03:56:36;;;;;;;2.63;2.30;;;14.70;79.50;;;;;;5034614;28;20041;-72
2021/05/16 03:59:02;;;;;;;2.45;2.00;;;14.80;78.50;;;;;;5045015;28;20040;-73
2021/05/16 04:01:28;;;;;;;2.78;2.00;;;14.80;77.80;;;;;;5046116;28;20071;-73
2021/05/16 04:03:57;;;;;;;2.47;2.25;;;14.70;78.30;;;;;;5040633;28;20411;-73
2021/05/16 04:06:23;;;;;;;2.45;2.25;;;14.80;78.40;;;;;;5041004;28;20391;-71
2021/05/16 04:08:48;;;;;;;2.55;2.35;;;14.80;78.40;;;;;;5037542;28;20050;-71
2021/05/16 04:11:41;;;;;;;3.38;2.55;;;14.80;78.20;;;;;;5034874;28;20474;-72
2021/05/16 04:14:07;;;;;;;2.50;2.30;;;14.80;76.70;;;;;;5011809;28;20029;-71
2021/05/16 04:16:33;;;;;;;3.25;2.38;;;14.90;77.30;;;;;;5039445;28;20029;-71
2021/05/16 04:18:58;;;;;;;2.35;2.15;;;14.90;77.80;;;;;;5036262;28;20498;-71
2021/05/16 04:21:24;;;;;;;2.00;1.90;;;14.90;77.30;;;;;;5039213;28;20128;-72
2021/05/16 04:23:50;;;;;;;2.97;2.60;;;14.90;78.10;;;;;;5016548;28;20069;-72
2021/05/16 04:26:15;;;;;;;3.08;2.67;;;14.90;77.80;;;;;;5034696;28;20033;-71
2021/05/16 04:28:41;;;;;;;2.40;2.20;;;14.90;77.60;;;;;;5039312;28;20501;-71
2021/05/16 04:31:07;;;;;;;3.28;2.53;;;14.80;78.40;;;;;;5038495;28;20080;-71
2021/05/16 04:33:32;;;;;;;2.65;2.20;;;14.80;78.30;;;;;;5035615;28;20041;-71
2021/05/16 04:35:59;;;;;;;2.95;2.13;;;14.90;78.40;;;;;;5034418;28;20040;-71
2021/05/16 04:38:25;;;;;;;2.70;2.50;;;15.00;76.60;;;;;;5045675;28;20037;-71
2021/05/16 04:40:51;;;;;;;2.33;2.08;;;15.00;78.00;;;;;;5041591;28;20068;-72
2021/05/16 04:43:17;;;;;;;2.13;1.90;;;15.00;78.50;;;;;;5032772;28;20475;-72
2021/05/16 04:45:42;;;;;;;5.03;2.97;;;15.00;77.60;;;;;;5038180;28;20045;-73
2021/05/16 04:48:08;;;;;;;3.10;2.42;;;15.00;78.10;;;;;;5037512;28;20045;-73
2021/05/16 04:50:52;;;;;;;3.58;2.13;;;15.00;78.10;;;;;;5043125;28;20041;-72
2021/05/16 04:53:18;;;;;;;2.67;2.05;;;15.00;77.60;;;;;;5029513;28;20046;-72
2021/05/16 04:55:43;;;;;;;2.53;2.15;;;15.00;78.40;;;;;;5041496;28;20060;-72
2021/05/16 04:58:09;;;;;;;2.42;2.03;;;15.00;78.20;;;;;;5041239;28;20044;-72
2021/05/16 05:00:35;;;;;;;2.53;2.33;;;15.10;76.30;;;;;;5038027;28;20127;-72
2021/05/16 05:03:01;;;;;;;2.40;2.20;;;15.10;77.00;;;;;;5029876;28;20055;-72
2021/05/16 05:05:28;;;;;;;4.47;2.42;;;15.20;76.90;;;;;;5038083;28;20044;-72
2021/05/16 05:07:54;;;;;;;2.25;2.05;;;15.30;76.90;;;;;;5035635;28;20132;-72
2021/05/16 05:11:15;;;;;;;2.35;1.88;;;15.30;75.90;;;;;;5068473;28;20037;-72
2021/05/16 05:13:41;;;;;;;3.22;2.03;;;15.30;73.70;;;;;;4983168;28;20091;-73
2021/05/16 05:16:07;;;;;;;3.55;2.00;;;15.30;73.60;;;;;;5034383;28;20042;-73
2021/05/16 05:18:34;;;;;;;2.17;1.90;;;15.30;73.90;;;;;;5036467;28;20475;-72
2021/05/16 05:21:00;;;;;;;2.58;2.38;;;15.40;74.30;;;;;;5039075;28;20037;-73
2021/05/16 05:23:27;;;;;;;2.90;1.83;;;15.50;73.80;;;;;;5037980;28;20525;-73
2021/05/16 05:25:55;;;;;;;2.20;2.00;;;15.60;73.10;;;;;;5031820;28;20036;-72
2021/05/16 05:28:21;;;;;;;5.47;2.30;;;15.60;71.90;;;;;;5034925;28;20514;-73
2021/05/16 05:30:46;;;;;;;3.88;2.22;;;15.60;72.60;;;;;;5039953;28;20037;-73
2021/05/16 05:33:12;;;;;;;4.97;2.00;;;15.60;72.20;;;;;;5038326;28;20064;-73
2021/05/16 05:35:38;;;;;;;3.17;2.08;;;15.60;72.20;;;;;;5040773;28;20041;-73
2021/05/16 05:38:03;;;;;;;2.58;2.17;;;15.60;71.90;;;;;;5040970;28;20131;-73
2021/05/16 05:40:29;;;;;;;2.30;2.10;;;15.60;72.70;;;;;;5033574;28;20045;-73
2021/05/16 05:42:55;;;;;;;2.28;1.80;;;15.60;73.00;;;;;;5041474;28;20107;-72
2021/05/16 05:45:20;;;;;;;2.28;1.80;;;15.70;72.90;;;;;;5034429;28;20463;-74
2021/05/16 05:47:46;;;;;;;3.72;2.13;;;15.70;72.10;;;;;;5044320;28;20033;-73
2021/05/16 05:50:12;;;;;;;2.58;2.35;;;15.80;71.90;;;;;;5038009;28;20434;-73
2021/05/16 05:52:38;;;;;;;2.08;1.85;;;15.70;71.40;;;;;;5046064;28;20473;-73
2021/05/16 05:55:04;;;;;;;2.10;2.00;;;15.70;71.50;;;;;;5040639;28;20029;-73
2021/05/16 05:57:30;;;;;;;3.65;2.10;;;15.80;71.60;;;;;;5044466;28;20037;-73
2021/05/16 05:59:59;;;;;;;2.78;1.58;;;15.90;70.90;;;;;;5043446;28;20112;-73
2021/05/16 06:02:25;;;;;;;3.40;1.90;;;15.90;70.50;;;;;;5042260;28;20407;-73
2021/05/16 06:04:51;;;;;;;3.97;1.92;;;15.90;70.20;;;;;;5038257;28;20037;-74
2021/05/16 06:07:16;;;;;;;1.98;1.77;;;15.90;71.00;;;;;;5038916;28;20038;-73
2021/05/16 06:09:44;;;;;;;2.78;1.80;;;16.00;70.90;;;;;;5035975;28;20047;-73
2021/05/16 06:12:10;;;;;;;3.05;1.75;;;15.90;69.10;;;;;;5040824;28;20321;-74
2021/05/16 06:14:37;;;;;;;2.80;1.67;;;16.00;70.20;;;;;;5035561;28;20048;-73
2021/05/16 06:17:03;;;;;;;1.42;1.33;;;16.00;68.90;;;;;;5041750;28;20602;-73
2021/05/16 06:19:29;;;;;;;2.10;1.90;;;16.00;67.70;;;;;;5038498;28;20490;-71
2021/05/16 06:21:58;;;;;;;2.30;1.58;;;16.10;68.50;;;;;;5034856;28;20049;-72
2021/05/16 06:24:23;;;;;;;1.70;1.60;;;16.20;68.40;;;;;;5040270;28;20384;-74
2021/05/16 06:26:52;;;;;;;2.28;1.80;;;16.30;67.60;;;;;;5041836;28;20040;-74
2021/05/16 06:29:27;;;;;;;2.20;1.80;;;16.30;67.30;;;;;;5042146;28;20153;-74
2021/05/16 06:31:52;;;;;;;1.77;1.67;;;16.30;65.80;;;;;;5033452;28;20026;-72
2021/05/16 06:34:19;;;;;;;3.03;1.85;;;16.30;67.20;;;;;;5045396;28;20041;-74
2021/05/16 06:36:44;;;;;;;1.92;1.83;;;16.40;67.40;;;;;;5034392;28;20103;-74
2021/05/16 06:39:10;;;;;;;2.95;2.05;;;16.40;68.80;;;;;;5038992;28;20041;-74
2021/05/16 06:41:36;;;;;;;3.15;2.78;;;16.50;68.60;;;;;;5038730;28;20087;-73
2021/05/16 06:44:02;;;;;;;5.18;3.38;;;16.50;68.00;;;;;;5036808;28;20048;-74
2021/05/16 06:46:28;;;;;;;3.10;2.80;;;16.60;67.90;;;;;;5041623;28;20599;-74
2021/05/16 06:48:54;;;;;;;3.22;2.22;;;16.60;67.50;;;;;;5041543;28;20187;-72
2021/05/16 06:51:20;;;;;;;3.38;3.08;;;16.60;67.20;;;;;;5038876;28;20041;-74
2021/05/16 06:53:46;;;;;;;3.95;3.58;;;16.70;67.10;;;;;;5045217;28;20041;-74
2021/05/16 06:56:14;;;;;;;3.88;3.58;;;16.80;68.30;;;;;;5040815;28;20476;-74
2021/05/16 06:58:40;;;;;;;3.85;3.50;;;16.90;67.90;;;;;;5034314;28;20037;-74
2021/05/16 07:01:05;;;;;;;4.55;4.00;;;16.90;67.50;;;;;;5042757;28;20033;-74
2021/05/16 07:03:34;;;;;;;3.85;3.42;;;16.90;67.60;;;;;;5038600;28;20044;-74
2021/05/16 07:06:00;;;;;;;4.03;3.35;;;16.90;66.20;;;;;;5038949;28;20617;-74
2021/05/16 07:08:25;;;;;;;4.65;3.03;;;17.00;66.10;;;;;;5034326;28;20128;-73
2021/05/16 07:10:51;;;;;;;3.35;2.78;;;17.10;66.00;;;;;;5034969;28;20030;-74
2021/05/16 07:13:17;;;;;;;3.08;2.83;;;17.10;65.40;;;;;;5041772;28;20179;-74
2021/05/16 07:15:42;;;;;;;3.30;2.80;;;17.00;65.40;;;;;;5036644;28;20030;-74
2021/05/16 07:18:08;;;;;;;3.70;3.15;;;17.10;65.60;;;;;;5033536;28;20036;-73
2021/05/16 07:20:34;;;;;;;4.72;3.30;;;17.20;66.70;;;;;;5049674;28;20056;-73
2021/05/16 07:23:00;;;;;;;3.40;2.95;;;17.20;66.00;;;;;;5033321;28;20045;-73
2021/05/16 07:25:25;;;;;;;4.43;3.10;;;17.20;65.40;;;;;;5044430;28;20037;-72
2021/05/16 07:27:52;;;;;;;5.18;2.97;;;17.20;65.40;;;;;;5035619;28;20092;-73
2021/05/16 07:33:40;;;;;;;3.47;2.83;;;17.30;65.30;;;;;;4985170;28;20159;-73
2021/05/16 07:36:06;;;;;;;3.00;2.67;;;17.30;65.00;;;;;;5036655;28;20040;-73
2021/05/16 07:38:32;;;;;;;3.30;3.00;;;17.40;65.10;;;;;;5036428;28;20170;-73
2021/05/16 07:40:58;;;;;;;3.47;2.60;;;17.30;64.50;;;;;;5033449;28;20120;-73
2021/05/16 07:43:25;;;;;;;3.05;2.45;;;17.30;64.10;;;;;;5036210;28;20115;-73
2021/05/16 07:45:52;;;;;;;4.45;2.70;;;17.30;63.00;;;;;;5039807;28;20045;-73
2021/05/16 07:48:18;;;;;;;3.75;2.80;;;17.40;63.10;;;;;;5044385;28;20088;-73
2021/05/16 07:50:44;;;;;;;2.33;2.13;;;17.40;63.50;;;;;;5034180;28;20061;-74
2021/05/16 07:53:11;;;;;;;2.70;1.92;;;17.50;63.00;;;;;;5040049;28;20481;-73
2021/05/16 07:55:40;;;;;;;2.58;1.85;;;17.50;62.40;;;;;;5036059;28;20057;-73
2021/05/16 07:58:06;;;;;;;4.03;1.63;;;17.60;61.40;;;;;;5044114;28;20041;-73
2021/05/16 08:00:32;;;;;;;1.88;1.63;;;17.60;60.10;;;;;;5032754;28;20051;-73
2021/05/16 08:02:57;;;;;;;1.75;1.40;;;17.60;60.30;;;;;;5040945;28;20033;-73
2021/05/16 08:05:35;;;;;;;3.05;2.25;;;17.70;60.20;;;;;;5036126;28;20037;-73
2021/05/16 08:08:29;;;;;;;2.75;1.77;;;17.70;59.80;;;;;;5035537;28;20422;-73
2021/05/16 08:10:54;;;;;;;3.70;2.13;;;17.90;60.30;;;;;;5032303;28;20469;-73
2021/05/16 08:13:20;;;;;;;1.75;1.23;;;17.80;60.60;;;;;;5038939;28;20033;-75
2021/05/16 08:15:46;;;;;;;1.75;1.38;;;17.90;58.80;;;;;;5034360;28;20064;-73
2021/05/16 08:18:15;;;;;;;2.38;1.45;;;18.00;58.50;;;;;;5035976;28;21598;-74
2021/05/16 08:20:40;;;;;;;1.95;1.58;;;18.00;58.40;;;;;;5036061;28;20410;-74
2021/05/16 08:23:06;;;;;;;2.58;1.45;;;18.10;58.50;;;;;;5044417;28;20046;-73
2021/05/16 08:25:33;;;;;;;2.33;1.50;;;18.10;58.10;;;;;;5032912;28;20035;-74
2021/05/16 08:27:59;;;;;;;2.90;1.40;;;18.10;58.30;;;;;;5040048;28;20128;-73
2021/05/16 08:30:25;;;;;;;2.92;1.10;;;18.20;58.50;;;;;;5044280;28;20127;-74
2021/05/16 08:32:51;;;;;;;2.85;1.33;;;18.20;57.50;;;;;;5038443;28;20037;-74
2021/05/16 08:35:16;;;;;;;3.40;1.27;;;18.20;57.20;;;;;;5033326;28;20499;-75
2021/05/16 08:37:42;;;;;;;2.00;1.20;;;18.30;57.70;;;;;;5034862;28;20048;-75
2021/05/16 08:40:09;;;;;;;1.55;1.23;;;18.20;56.10;;;;;;5037122;28;20072;-75
2021/05/16 08:42:35;;;;;;;1.70;1.60;;;18.30;55.90;;;;;;5035711;28;20053;-75
2021/05/16 08:45:00;;;;;;;3.40;1.48;;;18.30;56.50;;;;;;5043231;28;20134;-75
2021/05/16 08:47:27;;;;;;;2.38;1.52;;;18.30;56.50;;;;;;5048484;28;20052;-75
2021/05/16 08:49:53;;;;;;;2.13;1.73;;;18.30;57.40;;;;;;5035864;28;20030;-74
2021/05/16 08:52:19;;;;;;;2.42;1.35;;;18.30;57.20;;;;;;5037430;28;20509;-75
2021/05/16 08:54:52;;;;;;;2.58;1.75;;;18.20;55.60;;;;;;5034595;28;20033;-74
2021/05/16 08:57:18;;;;;;;4.53;1.95;;;18.20;57.00;;;;;;5038695;28;20057;-74
2021/05/16 09:00:05;;;;;;;4.45;1.58;;;18.30;56.70;;;;;;5030646;28;20039;-74
2021/05/16 09:02:31;;;;;;;4.50;1.80;;;18.40;56.20;;;;;;5000130;28;20068;-74
2021/05/16 09:04:56;;;;;;;3.08;1.70;;;18.50;56.30;;;;;;5055012;28;20532;-74
2021/05/16 09:07:30;;;;;;;4.10;1.55;;;18.40;56.00;;;;;;5025866;28;20037;-75
2021/05/16 09:09:58;;;;;;;3.15;1.40;;;18.60;56.60;;;;;;5034732;28;20063;-73
2021/05/16 09:12:24;;;;;;;4.68;2.00;;;18.60;55.70;;;;;;5029747;28;20036;-73
2021/05/16 09:18:11;;;;;;;4.22;1.52;;;18.70;54.70;;;;;;4982968;28;20774;-74
2021/05/16 09:20:37;;;;;;;4.78;1.70;;;18.70;54.80;;;;;;5038773;28;20053;-70
2021/05/16 09:23:02;;;;;;;2.60;1.63;;;18.80;55.00;;;;;;5042001;28;20096;-75
2021/05/16 09:25:31;;;;;;;2.15;1.80;;;18.70;55.10;;;;;;5040774;28;20094;-75
2021/05/16 09:28:05;;;;;;;4.45;1.80;;;18.60;54.50;;;;;;5041185;28;20045;-75
2021/05/16 09:30:33;;;;;;;2.53;2.03;;;18.60;54.90;;;;;;5056633;28;20395;-76
2021/05/16 09:33:04;;;;;;;5.88;2.25;;;18.60;54.60;;;;;;5040956;28;20033;-76
2021/05/16 09:35:37;;;;;;;6.28;2.50;;;18.70;55.60;;;;;;5043128;28;20455;-75
2021/05/16 09:38:09;;;;;;;4.35;2.03;;;18.60;55.80;;;;;;5029855;28;20043;-74
2021/05/16 09:40:44;;;;;;;2.83;2.00;;;18.60;54.60;;;;;;5039632;28;20053;-74
2021/05/16 09:43:12;;;;;;;;;;;18.60;55.10;;;;;;5040740;28;20714;-74
2021/05/16 09:45:48;;;;;;;4.85;2.15;;;18.50;54.50;;;;;;5042487;28;20273;-74
2021/05/16 09:48:33;;;;;;;2.80;1.90;;;18.50;54.70;;;;;;5049512;28;20037;-74
2021/05/16 09:51:17;;;;;;;4.28;1.92;;;18.60;54.00;;;;;;5019537;28;20064;-74
2021/05/16 09:53:54;;;;;;;4.40;2.30;;;18.70;53.50;;;;;;5036620;28;20417;-74
2021/05/16 09:56:34;;;;;;;2.20;2.00;;;18.70;53.80;;;;;;5038081;28;20479;-74
2021/05/16 09:59:03;;;;;;;3.08;2.00;;;18.70;55.30;;;;;;5013649;28;20487;-74
2021/05/16 10:01:30;;;;;;;2.15;1.75;;;18.60;55.50;;;;;;5031342;28;20042;-74
2021/05/16 10:03:58;;;;;;;4.40;2.28;;;18.60;55.50;;;;;;5027195;28;20037;-73
2021/05/16 10:06:26;;;;;;;4.63;2.83;;;18.70;55.40;;;;;;5030674;28;20044;-74
2021/05/16 10:08:52;;;;;;;2.95;2.45;;;18.70;54.90;;;;;;5031660;28;20487;-74
2021/05/16 10:11:24;;;;;;;2.70;2.30;;;18.70;55.10;;;;;;4996401;28;20051;-74
2021/05/16 10:14:02;;;;;;;2.47;2.15;;;18.70;55.50;;;;;;5030726;28;20033;-74
2021/05/16 10:16:33;;;;;;;2.63;1.90;;;18.70;54.40;;;;;;5026743;28;20044;-74
2021/05/16 10:19:00;;;;;;;3.47;2.30;;;18.70;55.70;;;;;;5030859;28;20569;-75
2021/05/16 10:21:26;;;;;;;3.15;2.15;;;18.60;55.10;;;;;;5027530;28;20111;-76
2021/05/16 10:24:12;;;;;;;4.63;2.63;;;18.60;55.40;;;;;;5030217;28;20161;-77
2021/05/16 10:26:40;;;;;;;3.80;2.35;;;18.50;55.60;;;;;;5003434;28;20061;-78
2021/05/16 10:29:10;;;;;;;3.63;2.38;;;18.50;55.40;;;;;;5030701;28;20038;-78
2021/05/16 10:31:52;;;;;;;4.10;3.08;;;18.50;55.30;;;;;;5019141;28;20033;-74
2021/05/16 10:34:30;;;;;;;2.70;2.15;;;18.50;56.30;;;;;;5054949;28;20077;-74
2021/05/16 10:37:01;;;;;;;3.80;2.65;;;18.50;55.80;;;;;;5024758;28;20977;-75
2021/05/16 10:39:39;;;;;;;5.43;3.10;;;18.60;55.70;;;;;;5031584;28;20044;-75
2021/05/16 10:42:14;;;;;;;4.32;2.40;;;18.70;55.30;;;;;;5042807;28;20064;-75
2021/05/16 10:45:09;;;;;;;5.45;2.60;;;18.70;54.80;;;;;;5032308;28;20045;-76
2021/05/16 10:47:54;;;;;;;4.75;2.92;;;18.80;54.50;;;;;;5004908;28;20064;-75
2021/05/16 10:50:26;;;;;;;4.20;3.22;;;18.80;55.10;;;;;;5031212;28;20041;-75
2021/05/16 10:52:58;;;;;;;6.38;2.95;;;18.80;56.00;;;;;;5027759;28;20045;-74
2021/05/16 10:55:32;;;;;;;4.68;2.67;;;18.70;55.60;;;;;;5030585;28;20037;-75
2021/05/16 10:57:59;;;;;;;3.88;2.55;;;18.70;56.30;;;;;;5025498;28;20044;-72
2021/05/16 11:00:30;;;;;;;2.83;2.53;;;18.70;56.10;;;;;;5042221;28;20037;-75
2021/05/16 11:02:59;;;;;;;3.13;2.80;;;18.60;55.60;;;;;;5027815;28;20052;-77
2021/05/16 11:05:51;;;;;;;3.30;3.00;;;18.70;56.00;;;;;;5035304;28;20037;-75
2021/05/16 11:08:16;;;;;;;6.43;2.53;;;18.70;55.90;;;;;;5026072;28;20045;-77
2021/05/16 11:10:47;;;;;;;5.15;2.65;;;18.70;55.60;;;;;;5031377;28;20569;-77
2021/05/16 11:13:26;;;;;;;4.05;2.67;;;18.70;55.40;;;;;;5040635;28;20045;-78
2021/05/16 11:15:54;;;;;;;2.75;2.38;;;18.70;55.70;;;;;;5032351;28;20041;-77
2021/05/16 11:18:22;;;;;;;5.82;3.33;;;18.70;55.10;;;;;;5025318;28;20051;-77
2021/05/16 11:20:58;;;;;;;4.25;2.75;;;18.70;55.50;;;;;;5031072;28;20496;-77
2021/05/16 11:23:26;;;;;;;2.30;2.05;;;18.70;55.50;;;;;;5026978;28;20041;-76
2021/05/16 11:26:01;;;;;;;5.28;2.40;;;18.70;55.30;;;;;;5030368;28;20424;-76
2021/05/16 11:28:50;;;;;;;1.95;1.65;;;18.60;54.70;;;;;;5040599;28;20427;-76
2021/05/16 11:31:21;;;;;;;2.78;1.80;;;18.50;55.50;;;;;;5029832;28;20040;-77
2021/05/16 11:33:48;;;;;;;4.72;1.88;;;18.60;55.60;;;;;;5025428;28;20044;-77
2021/05/16 11:36:16;;;;;;;4.10;2.28;;;18.60;56.20;;;;;;5045526;28;20056;-76
2021/05/16 11:38:46;;;;;;;2.03;1.77;;;18.60;55.60;;;;;;5026855;28;20401;-77
2021/05/16 11:41:33;;;;;;;2.38;2.13;;;18.70;55.50;;;;;;5030091;28;20067;-78
2021/05/16 11:44:02;;;;;;;3.72;2.20;;;18.70;54.60;;;;;;5006365;28;20037;-77
2021/05/16 11:46:41;;;;;;;3.83;2.67;;;18.70;55.00;;;;;;5038981;28;20029;-77
2021/05/16 11:49:27;;;;;;;3.85;2.42;;;18.70;55.30;;;;;;5028475;28;20119;-77
2021/05/16 11:51:58;;;;;;;3.30;1.88;;;18.70;54.90;;;;;;5030609;28;20033;-67
2021/05/16 11:54:26;;;;;;;4.95;2.40;;;18.70;54.90;;;;;;5027089;28;20390;-68
2021/05/16 11:56:52;;;;;;;6.15;2.70;;;18.90;55.20;;;;;;5036180;28;20037;-77
2021/05/16 11:59:18;;;;;;;2.20;1.85;;;19.00;54.50;;;;;;5025400;28;20076;-78
2021/05/16 12:01:46;;;;;;;3.20;1.98;;;19.10;54.20;;;;;;5033886;28;20076;-78
2021/05/16 12:04:15;;;;;;;2.63;2.10;;;19.40;53.90;;;;;;5030345;28;20037;-78
2021/05/16 12:06:45;;;;;;;4.07;1.92;;;19.60;53.20;;;;;;5029711;28;20049;-78
2021/05/16 12:09:14;;;;;;;2.42;2.03;;;;;;;;;;5025820;28;20128;-78
2021/05/16 12:11:42;;;;;;;4.35;2.28;;;19.90;55.30;;;;;;5038011;28;20392;-78
2021/05/16 12:14:17;;;;;;;4.88;2.70;;;20.00;52.70;;;;;;5027996;28;20041;-77
2021/05/16 12:16:53;;;;;;;9.48;4.10;;;19.90;52.50;;;;;;5034273;28;20675;-76
2021/05/16 12:19:27;;;;;;;4.53;2.28;;;19.80;52.40;;;;;;5026842;28;21381;-77
2021/05/16 12:21:57;;;;;;;5.28;2.35;;;19.80;52.30;;;;;;5036401;28;20096;-77
2021/05/16 12:24:24;;;;;;;3.03;1.90;;;19.70;52.90;;;;;;5030488;28;20052;-77
2021/05/16 12:26:50;;;;;;;3.00;2.00;;;19.50;52.90;;;;;;5034696;28;20420;-77
2021/05/16 12:29:17;;;;;;;3.65;2.13;;;19.50;52.80;;;;;;5032641;28;20044;-77
2021/05/16 12:31:44;;;;;;;4.63;2.47;;;19.40;53.40;;;;;;5032757;28;20094;-77
2021/05/16 12:34:11;;;;;;;3.78;1.95;;;19.40;54.00;;;;;;5033236;28;20067;-77
2021/05/16 12:36:53;;;;;;;3.80;2.35;;;19.30;54.30;;;;;;5027851;28;20168;-77
2021/05/16 12:39:59;;;;;;;4.15;2.13;;;19.30;55.60;;;;;;5033411;28;20041;-77
2021/05/16 12:42:36;;;;;;;6.20;2.83;;;19.20;55.20;;;;;;4985818;28;20530;-74
2021/05/16 12:48:23;;;;;;;6.78;3.15;;;19.10;55.10;;;;;;5002155;28;20130;-75
2021/05/16 12:50:52;;;;;;;5.97;2.72;;;19.10;56.00;;;;;;5040436;28;20703;-75
2021/05/16 12:53:25;;;;;;;5.00;2.33;;;19.10;55.60;;;;;;5039691;28;20053;-74
2021/05/16 12:55:56;;;;;;;3.88;2.25;;;19.00;55.60;;;;;;5038240;28;20049;-75
2021/05/16 12:58:39;;;;;;;5.78;2.95;;;19.00;56.50;;;;;;5042428;28;20052;-75
2021/05/16 13:01:04;;;;;;;2.97;2.40;;;19.00;56.50;;;;;;5021095;28;20048;-75
2021/05/16 13:03:30;;;;;;;4.63;2.80;;;19.00;56.80;;;;;;5039972;28;20034;-74
2021/05/16 13:05:57;;;;;;;6.80;3.10;;;19.00;57.80;;;;;;5036380;28;20390;-75
2021/05/16 13:08:39;;;;;;;7.55;3.00;;;18.90;59.20;;;;;;5044057;28;20033;-75